createdAt,value
2023-02-23T00:02:07.108Z,36.92
2023-02-23T00:04:40.040Z,34.53
2023-02-23T00:07:12.904Z,38.88
2023-02-23T00:09:43.455Z,35.85
2023-02-23T00:12:13.634Z,37.58
2023-02-23T00:14:44.095Z,36.60
2023-02-23T00:17:15.072Z,37.13
2023-02-23T00:19:46.243Z,37.25
2023-02-23T00:22:19.028Z,36.47
2023-02-23T00:24:50.248Z,40.03
2023-02-23T00:27:21.501Z,37.90
2023-02-23T00:29:52.901Z,39.40
2023-02-23T00:32:25.618Z,40.33
2023-02-23T00:34:58.031Z,42.08
2023-02-23T00:37:30.840Z,40.05
2023-02-23T00:40:00.923Z,41.35
2023-02-23T00:42:33.200Z,39.33
2023-02-23T00:45:08.575Z,39.65
2023-02-23T00:47:39.074Z,43.75
2023-02-23T00:50:12.809Z,41.65
2023-02-23T00:52:47.025Z,40.33
2023-02-23T00:55:40.785Z,42.17
2023-02-23T00:58:14.105Z,41.53
2023-02-23T01:00:47.453Z,41.40
2023-02-23T01:03:17.610Z,44.10
2023-02-23T01:05:50.001Z,46.00
2023-02-23T01:08:23.194Z,40.22
2023-02-23T01:10:57.552Z,44.05
2023-02-23T01:13:28.970Z,41.03
2023-02-23T01:15:59.131Z,45.65
2023-02-23T01:18:29.491Z,41.30
2023-02-23T01:20:59.642Z,42.63
2023-02-23T01:23:32.403Z,41.58
2023-02-23T01:26:05.124Z,43.90
2023-02-23T01:28:38.559Z,43.30
2023-02-23T01:31:12.319Z,41.80
2023-02-23T01:33:42.506Z,43.92
2023-02-23T01:36:13.119Z,45.15
2023-02-23T01:38:45.956Z,44.00
2023-02-23T01:41:16.282Z,45.15
2023-02-23T01:44:01.729Z,48.75
2023-02-23T01:46:36.026Z,45.53
2023-02-23T01:49:11.708Z,44.03
2023-02-23T01:51:48.537Z,45.53
2023-02-23T01:54:31.058Z,44.95
2023-02-23T01:57:05.950Z,44.63
2023-02-23T01:59:42.754Z,42.50
2023-02-23T02:02:14.205Z,46.00
2023-02-23T02:04:46.759Z,44.58
2023-02-23T02:07:23.433Z,46.38
2023-02-23T02:10:14.256Z,42.05
2023-02-23T02:12:47.878Z,45.10
2023-02-23T02:15:20.001Z,46.05
2023-02-23T02:18:09.705Z,47.10
2023-02-23T02:21:20.046Z,45.58
2023-02-23T02:24:55.619Z,46.63
2023-02-23T02:27:58.537Z,46.17
2023-02-23T02:31:00.691Z,47.72
2023-02-23T02:34:25.409Z,44.25
2023-02-23T02:37:45.175Z,42.83
2023-02-23T02:40:34.348Z,45.30
2023-02-23T02:43:14.741Z,43.67
2023-02-23T02:45:53.935Z,45.95
2023-02-23T02:48:41.892Z,42.13
2023-02-23T02:51:24.810Z,39.92
2023-02-23T02:54:07.317Z,36.20
2023-02-23T02:56:44.043Z,39.75
2023-02-23T02:59:32.174Z,40.75
2023-02-23T03:02:14.876Z,43.13
2023-02-23T03:04:58.032Z,43.40
2023-02-23T03:07:50.452Z,40.05
2023-02-23T03:10:50.494Z,39.00
2023-02-23T03:13:51.803Z,41.45
2023-02-23T03:16:46.721Z,44.08
2023-02-23T03:19:36.851Z,43.03
2023-02-23T03:22:34.222Z,42.92
2023-02-23T03:25:24.923Z,41.75
2023-02-23T03:28:27.855Z,38.08
2023-02-23T03:31:24.669Z,34.55
2023-02-23T03:34:18.801Z,35.85
2023-02-23T03:37:14.513Z,35.22
2023-02-23T03:40:06.794Z,38.45
2023-02-23T03:42:54.271Z,32.88
2023-02-23T03:45:43.276Z,37.65
2023-02-23T03:48:31.415Z,30.52
2023-02-23T03:51:24.372Z,30.20
2023-02-23T03:54:19.108Z,30.67
2023-02-23T03:57:08.028Z,37.50
2023-02-23T03:59:58.568Z,44.33
2023-02-23T04:02:46.411Z,51.33
2023-02-23T04:05:34.060Z,52.00
2023-02-23T04:08:24.898Z,54.47
2023-02-23T04:11:20.701Z,56.58
2023-02-23T04:13:58.744Z,54.67
2023-02-23T04:16:28.737Z,53.47
2023-02-23T04:19:02.433Z,53.50
2023-02-23T04:21:32.550Z,58.58
2023-02-23T04:24:02.583Z,54.17
2023-02-23T04:26:32.855Z,56.50
2023-02-23T04:29:02.930Z,55.80
2023-02-23T04:31:41.907Z,50.22
2023-02-23T04:34:15.229Z,47.33
2023-02-23T04:36:45.446Z,50.35
2023-02-23T04:39:15.487Z,48.47
2023-02-23T04:41:49.000Z,46.55
2023-02-23T04:44:19.404Z,49.13
2023-02-23T04:46:49.789Z,51.10
2023-02-23T04:49:22.606Z,57.42
2023-02-23T04:51:52.728Z,57.50
2023-02-23T04:54:23.026Z,56.97
2023-02-23T04:56:53.303Z,59.03
2023-02-23T04:59:25.635Z,59.92
2023-02-23T05:01:56.025Z,58.33
2023-02-23T05:04:29.033Z,62.45
2023-02-23T05:06:59.579Z,62.83
2023-02-23T05:13:19.977Z,69.10
2023-02-23T05:15:50.934Z,62.50
2023-02-23T05:18:21.841Z,69.05
2023-02-23T05:20:55.271Z,65.57
2023-02-23T05:23:26.193Z,58.40
2023-02-23T05:25:56.403Z,62.57
2023-02-23T05:28:27.105Z,57.83
2023-02-23T05:30:57.258Z,58.33
2023-02-23T05:33:27.517Z,63.58
2023-02-23T05:36:01.101Z,62.28
2023-02-23T05:38:31.455Z,60.03
2023-02-23T05:41:01.854Z,59.43
2023-02-23T05:43:32.146Z,64.75
2023-02-23T05:46:02.561Z,66.35
2023-02-23T05:48:32.695Z,56.60
2023-02-23T05:51:09.005Z,59.63
2023-02-23T05:53:40.830Z,61.97
2023-02-23T05:56:21.336Z,55.80
2023-02-23T05:58:51.716Z,58.50
2023-02-23T06:01:23.175Z,56.40
2023-02-23T06:03:54.434Z,55.40
2023-02-23T06:06:28.530Z,58.28
2023-02-23T06:08:59.596Z,54.97
2023-02-23T06:11:31.158Z,57.07
2023-02-23T06:14:02.211Z,57.45
2023-02-23T06:16:32.393Z,53.67
2023-02-23T06:19:02.775Z,53.07
2023-02-23T06:21:37.611Z,53.75
2023-02-23T06:24:08.783Z,54.78
2023-02-23T06:26:38.944Z,59.17
2023-02-23T06:29:09.301Z,56.00
2023-02-23T06:31:39.589Z,58.13
2023-02-23T06:34:09.830Z,57.50
2023-02-23T06:36:42.524Z,57.75
2023-02-23T06:39:17.378Z,58.17
2023-02-23T06:41:47.455Z,55.83
2023-02-23T06:44:17.679Z,62.63
2023-02-23T06:46:47.879Z,56.72
2023-02-23T06:49:18.111Z,61.08
2023-02-23T06:51:50.852Z,57.83
2023-02-23T06:54:21.390Z,61.67
2023-02-23T06:56:51.512Z,62.67
2023-02-23T06:59:21.901Z,62.60
2023-02-23T07:01:52.161Z,57.93
2023-02-23T07:04:22.429Z,60.63
2023-02-23T07:06:55.190Z,59.23
2023-02-23T07:09:25.610Z,55.83
2023-02-23T07:11:56.557Z,54.83
2023-02-23T07:14:27.447Z,55.97
2023-02-23T07:16:58.293Z,51.70
2023-02-23T07:19:28.794Z,54.15
2023-02-23T07:22:01.642Z,53.17
2023-02-23T07:24:31.829Z,52.42
2023-02-23T07:27:01.938Z,53.30
2023-02-23T07:29:32.130Z,57.75
2023-02-23T07:32:02.744Z,56.20
2023-02-23T07:34:32.969Z,58.15
2023-02-23T07:37:06.065Z,61.40
2023-02-23T07:39:36.172Z,56.15
2023-02-23T07:42:07.426Z,56.67
2023-02-23T07:44:38.190Z,57.42
2023-02-23T07:47:08.398Z,57.15
2023-02-23T07:49:38.617Z,56.17
2023-02-23T07:52:11.331Z,52.30
2023-02-23T07:54:41.474Z,57.22
2023-02-23T07:57:12.358Z,57.83
2023-02-23T07:59:44.926Z,55.35
2023-02-23T08:02:16.739Z,59.63
2023-02-23T08:04:48.365Z,54.38
2023-02-23T08:07:21.148Z,55.78
2023-02-23T08:09:51.985Z,56.88
2023-02-23T08:12:22.180Z,59.38
2023-02-23T08:14:53.319Z,54.03
2023-02-23T08:17:27.525Z,57.20
2023-02-23T08:19:57.707Z,57.40
2023-02-23T08:22:37.852Z,52.15
2023-02-23T08:25:14.076Z,55.92
2023-02-23T08:27:44.419Z,52.15
2023-02-23T08:30:17.354Z,54.88
2023-02-23T08:32:47.911Z,55.08
2023-02-23T08:35:20.201Z,46.15
2023-02-23T08:37:53.299Z,52.92
2023-02-23T08:40:23.508Z,63.58
2023-02-23T08:42:54.261Z,56.25
2023-02-23T08:45:29.414Z,53.17
2023-02-23T08:48:00.031Z,50.30
2023-02-23T08:50:30.235Z,49.50
2023-02-23T08:53:07.533Z,54.15
2023-02-23T08:55:38.180Z,47.55
2023-02-23T08:58:10.786Z,48.35
2023-02-23T09:00:41.399Z,40.10
2023-02-23T09:03:14.058Z,38.60
2023-02-23T09:05:44.317Z,40.60
2023-02-23T09:08:18.538Z,47.47
2023-02-23T09:10:48.660Z,45.08
2023-02-23T09:13:19.770Z,42.20
2023-02-23T09:15:50.909Z,43.75
2023-02-23T09:18:27.533Z,42.00
2023-02-23T09:20:58.001Z,43.60
2023-02-23T09:23:32.192Z,42.47
2023-02-23T09:26:06.772Z,37.42
2023-02-23T09:28:40.681Z,39.90
2023-02-23T09:31:14.176Z,41.90
2023-02-23T09:33:46.915Z,35.53
2023-02-23T09:36:20.186Z,35.45
2023-02-23T09:38:57.231Z,36.92
2023-02-23T09:42:22.936Z,41.60
2023-02-23T09:45:24.497Z,37.65
2023-02-23T09:48:12.645Z,40.05
2023-02-23T09:50:53.606Z,40.60
2023-02-23T09:53:43.665Z,36.15
2023-02-23T09:56:33.144Z,40.50
2023-02-23T09:59:04.618Z,39.67
2023-02-23T10:02:00.091Z,34.47
2023-02-23T10:04:34.190Z,35.13
2023-02-23T10:07:14.989Z,33.78
2023-02-23T10:10:13.214Z,35.25
2023-02-23T10:12:56.966Z,35.97
2023-02-23T10:15:37.614Z,34.15
2023-02-23T10:18:44.964Z,39.80
2023-02-23T10:21:35.377Z,35.88
2023-02-23T10:24:14.003Z,37.53
2023-02-23T10:26:50.634Z,34.00
2023-02-23T10:29:33.962Z,36.33
2023-02-23T10:32:10.906Z,33.95
2023-02-23T10:34:43.043Z,34.08
2023-02-23T10:37:16.840Z,33.90
2023-02-23T10:39:49.997Z,32.88
2023-02-23T10:42:28.943Z,33.55
2023-02-23T10:45:05.283Z,32.60
2023-02-23T10:47:39.152Z,33.22
2023-02-23T10:50:15.989Z,32.42
2023-02-23T10:52:50.679Z,31.40
2023-02-23T10:55:30.214Z,29.35
2023-02-23T10:58:16.998Z,29.45
2023-02-23T11:01:08.891Z,28.25
2023-02-23T11:03:45.760Z,30.35
2023-02-23T11:06:33.769Z,29.13
2023-02-23T11:09:43.772Z,30.38
2023-02-23T11:12:25.530Z,26.83
2023-02-23T11:14:58.306Z,33.38
2023-02-23T11:17:38.126Z,26.60
2023-02-23T11:20:25.300Z,27.52
2023-02-23T11:22:59.052Z,30.73
2023-02-23T11:25:35.651Z,28.33
2023-02-23T11:28:06.106Z,29.30
2023-02-23T11:30:47.254Z,29.95
2023-02-23T11:33:29.666Z,29.70
2023-02-23T11:36:02.763Z,30.05
2023-02-23T11:38:35.540Z,33.08
2023-02-23T11:41:20.399Z,33.72
2023-02-23T11:43:54.890Z,33.35
2023-02-23T11:46:32.063Z,32.65
2023-02-23T11:49:09.710Z,34.75
2023-02-23T11:51:44.567Z,32.08
2023-02-23T11:54:31.398Z,32.97
2023-02-23T11:57:02.760Z,32.90
2023-02-23T11:59:38.285Z,32.15
2023-02-23T12:02:25.179Z,32.17
2023-02-23T12:05:10.180Z,33.40
2023-02-23T12:07:44.270Z,32.33
2023-02-23T12:10:24.507Z,34.47
2023-02-23T12:13:07.441Z,33.03
2023-02-23T12:15:50.748Z,32.92
2023-02-23T12:18:47.192Z,27.33
2023-02-23T12:21:38.203Z,27.70
2023-02-23T12:24:20.976Z,28.45
2023-02-23T12:27:01.664Z,24.52
2023-02-23T12:29:45.072Z,25.27
2023-02-23T12:32:23.389Z,25.05
2023-02-23T12:35:01.604Z,27.25
2023-02-23T12:37:42.861Z,28.15
2023-02-23T12:40:20.599Z,30.38
2023-02-23T12:43:04.632Z,32.03
2023-02-23T12:45:44.710Z,29.23
2023-02-23T12:48:38.612Z,34.47
2023-02-23T12:51:25.234Z,32.83
2023-02-23T12:53:58.071Z,31.40
2023-02-23T12:56:53.628Z,30.65
2023-02-23T13:00:23.828Z,24.52
2023-02-23T13:03:22.223Z,26.75
2023-02-23T13:06:05.215Z,25.70
2023-02-23T13:09:09.589Z,26.08
2023-02-23T13:12:17.679Z,31.38
2023-02-23T13:15:01.786Z,34.22
2023-02-23T13:17:49.869Z,31.42
2023-02-23T13:20:27.755Z,32.90
2023-02-23T13:23:14.208Z,31.25
2023-02-23T13:25:56.151Z,28.30
2023-02-23T13:28:52.164Z,26.23
2023-02-23T13:31:29.866Z,33.60
2023-02-23T13:34:03.609Z,31.15
2023-02-23T13:36:37.491Z,30.60
2023-02-23T13:39:45.366Z,37.22
2023-02-23T13:42:35.641Z,33.35
2023-02-23T13:45:44.098Z,31.60
2023-02-23T13:48:47.326Z,30.77
2023-02-23T13:51:41.472Z,29.90
2023-02-23T13:54:30.230Z,31.63
2023-02-23T13:57:05.261Z,38.53
2023-02-23T13:59:46.095Z,36.25
2023-02-23T14:02:43.951Z,44.00
2023-02-23T14:05:25.098Z,36.95
2023-02-23T14:08:02.393Z,41.35
2023-02-23T14:10:41.488Z,37.70
2023-02-23T14:13:31.262Z,37.20
2023-02-23T14:16:24.227Z,40.53
2023-02-23T14:19:40.035Z,40.55
2023-02-23T14:22:17.814Z,45.60
2023-02-23T14:24:48.224Z,44.40
2023-02-23T14:27:34.142Z,49.60
2023-02-23T14:30:25.470Z,47.47
2023-02-23T14:33:21.186Z,48.00
2023-02-23T14:35:54.682Z,43.15
2023-02-23T14:38:47.589Z,42.45
2023-02-23T14:41:23.499Z,46.13
2023-02-23T14:43:58.035Z,44.95
2023-02-23T14:46:30.738Z,45.15
2023-02-23T14:49:05.316Z,45.10
2023-02-23T14:51:45.013Z,43.92
2023-02-23T14:54:33.845Z,52.00
2023-02-23T14:57:22.776Z,42.85
2023-02-23T15:00:05.478Z,45.03
2023-02-23T15:02:45.853Z,42.25
2023-02-23T15:05:28.847Z,42.00
2023-02-23T15:08:07.707Z,48.05
2023-02-23T15:10:41.858Z,41.10
2023-02-23T15:13:19.114Z,41.58
2023-02-23T15:15:49.809Z,43.33
2023-02-23T15:18:29.435Z,41.65
2023-02-23T15:21:00.027Z,37.38
2023-02-23T15:23:39.906Z,34.60
2023-02-23T15:26:24.438Z,37.63
2023-02-23T15:28:58.195Z,34.58
2023-02-23T15:31:35.750Z,32.20
2023-02-23T15:34:05.979Z,36.20
2023-02-23T15:36:41.356Z,33.58
2023-02-23T15:39:22.282Z,35.90
2023-02-23T15:41:53.387Z,38.00
2023-02-23T15:44:32.206Z,30.70
2023-02-23T15:47:19.481Z,46.97
2023-02-23T15:49:50.555Z,39.17
2023-02-23T15:52:27.428Z,73.78
2023-02-23T15:55:06.447Z,45.75
2023-02-23T15:57:49.939Z,53.97
2023-02-23T16:00:32.714Z,51.15
2023-02-23T16:03:06.236Z,42.17
2023-02-23T16:05:47.079Z,129.30
2023-02-23T16:08:27.271Z,83.65
2023-02-23T16:11:12.094Z,46.88
2023-02-23T16:13:46.881Z,54.30
2023-02-23T16:16:25.675Z,30.98
2023-02-23T16:19:01.807Z,35.95
2023-02-23T16:21:34.884Z,28.17
2023-02-23T16:24:13.426Z,43.33
2023-02-23T16:26:53.798Z,33.72
2023-02-23T16:29:41.545Z,34.03
2023-02-23T16:32:23.685Z,31.93
2023-02-23T16:35:02.029Z,33.07
2023-02-23T16:37:32.207Z,35.03
2023-02-23T16:40:05.493Z,31.77
2023-02-23T16:42:38.728Z,33.93
2023-02-23T16:45:17.746Z,34.63
2023-02-23T16:47:50.365Z,33.50
2023-02-23T16:50:26.030Z,37.87
2023-02-23T16:52:57.857Z,34.23
2023-02-23T16:55:31.101Z,38.17
2023-02-23T16:58:10.432Z,40.17
2023-02-23T17:00:41.800Z,36.43
2023-02-23T17:03:21.264Z,34.23
2023-02-23T17:05:51.518Z,35.08
2023-02-23T17:08:26.271Z,36.47
2023-02-23T17:10:57.930Z,40.20
2023-02-23T17:13:34.712Z,36.90
2023-02-23T17:16:09.447Z,36.13
2023-02-23T17:18:44.991Z,38.03
2023-02-23T17:21:23.873Z,38.53
2023-02-23T17:24:02.698Z,37.17
2023-02-23T17:26:32.890Z,39.30
2023-02-23T17:29:06.264Z,39.28
2023-02-23T17:31:38.090Z,42.13
2023-02-23T17:34:09.041Z,41.10
2023-02-23T17:36:39.179Z,40.63
2023-02-23T17:39:10.024Z,38.57
2023-02-23T17:41:40.205Z,40.22
2023-02-23T17:44:13.313Z,41.67
2023-02-23T17:46:43.716Z,39.77
2023-02-23T17:49:13.840Z,42.30
2023-02-23T17:51:44.948Z,40.47
2023-02-23T17:54:15.986Z,41.23
2023-02-23T17:56:48.020Z,37.90
2023-02-23T17:59:20.781Z,39.70
2023-02-23T18:01:58.777Z,40.07
2023-02-23T18:04:29.061Z,39.77
2023-02-23T18:06:59.834Z,41.43
2023-02-23T18:09:30.712Z,37.42
2023-02-23T18:12:00.908Z,38.60
2023-02-23T18:14:33.702Z,49.20
2023-02-23T18:17:03.985Z,45.20
2023-02-23T18:19:34.742Z,38.90
2023-02-23T18:22:04.881Z,43.93
2023-02-23T18:24:36.298Z,42.23
2023-02-23T18:27:07.510Z,41.70
2023-02-23T18:29:40.238Z,40.03
2023-02-23T18:32:11.380Z,37.30
2023-02-23T18:34:41.828Z,38.23
2023-02-23T18:37:11.919Z,45.27
2023-02-23T18:39:42.132Z,50.23
2023-02-23T18:42:12.255Z,38.57
2023-02-23T18:44:45.128Z,39.63
2023-02-23T18:47:15.357Z,40.37
2023-02-23T18:49:45.736Z,43.10
2023-02-23T18:52:15.951Z,41.57
2023-02-23T18:54:46.161Z,45.53
2023-02-23T18:57:16.335Z,41.10
2023-02-23T18:59:49.180Z,40.50
2023-02-23T19:02:19.353Z,41.53
2023-02-23T19:04:49.501Z,40.43
2023-02-23T19:07:20.858Z,45.27
2023-02-23T19:09:51.516Z,44.03
2023-02-23T19:12:24.273Z,47.03
2023-02-23T19:14:57.641Z,46.97
2023-02-23T19:17:28.038Z,44.90
2023-02-23T19:20:00.555Z,48.43
2023-02-23T19:22:32.336Z,46.80
2023-02-23T19:25:02.681Z,45.93
2023-02-23T19:27:34.422Z,44.90
2023-02-23T19:30:10.282Z,49.53
2023-02-23T19:32:42.382Z,53.60
2023-02-23T19:35:17.280Z,50.00
2023-02-23T19:37:51.902Z,47.97
2023-02-23T19:40:29.226Z,45.07
2023-02-23T19:42:59.658Z,45.70
2023-02-23T19:45:32.569Z,41.50
2023-02-23T19:48:02.719Z,42.50
2023-02-23T19:50:33.081Z,47.73
2023-02-23T19:53:03.223Z,46.73
2023-02-23T19:55:33.582Z,44.50
2023-02-23T19:58:03.726Z,54.07
2023-02-23T20:00:36.775Z,47.53
2023-02-23T20:03:07.102Z,46.63
2023-02-23T20:05:44.221Z,45.33
2023-02-23T20:08:19.296Z,39.63
2023-02-23T20:10:49.427Z,51.87
2023-02-23T20:13:21.423Z,42.83
2023-02-23T20:16:03.129Z,42.40
2023-02-23T20:18:33.641Z,66.80
2023-02-23T20:21:03.856Z,47.77
2023-02-23T20:23:35.736Z,43.07
2023-02-23T20:26:09.241Z,39.87
2023-02-23T20:28:40.157Z,41.80
2023-02-23T20:31:21.171Z,37.83
2023-02-23T20:33:52.197Z,41.90
2023-02-23T20:36:25.141Z,41.07
2023-02-23T20:38:55.846Z,37.70
2023-02-23T20:41:28.026Z,44.27
2023-02-23T20:44:00.984Z,42.10
2023-02-23T20:46:34.342Z,44.57
2023-02-23T20:49:04.492Z,47.73
2023-02-23T20:51:34.602Z,43.83
2023-02-23T20:54:04.760Z,46.33
2023-02-23T20:56:34.834Z,44.10
2023-02-23T20:59:11.114Z,38.23
2023-02-23T21:01:46.260Z,37.83
2023-02-23T21:04:16.431Z,40.97
2023-02-23T21:06:47.968Z,34.37
2023-02-23T21:09:22.332Z,40.17
2023-02-23T21:11:52.523Z,36.00
2023-02-23T21:17:02.705Z,34.87
2023-02-23T21:19:32.883Z,33.10
2023-02-23T21:22:03.008Z,40.00
2023-02-23T21:24:33.980Z,37.20
2023-02-23T21:27:05.688Z,32.33
2023-02-23T21:29:36.512Z,34.97
2023-02-23T21:32:10.725Z,33.50
2023-02-23T21:34:40.955Z,27.20
2023-02-23T21:37:11.515Z,30.87
2023-02-23T21:39:41.713Z,30.93
2023-02-23T21:42:11.826Z,29.67
2023-02-23T21:44:44.478Z,28.13
2023-02-23T21:47:17.491Z,30.83
2023-02-23T21:49:49.465Z,29.00
2023-02-23T21:52:22.469Z,34.43
2023-02-23T21:54:53.330Z,30.70
2023-02-23T21:57:26.284Z,31.03
2023-02-23T21:59:57.220Z,33.57
2023-02-23T22:02:30.575Z,31.73
2023-02-23T22:05:01.390Z,39.27
2023-02-23T22:07:34.932Z,30.17
2023-02-23T22:10:06.244Z,32.23
2023-02-23T22:12:36.383Z,30.77
2023-02-23T22:15:10.440Z,30.93
2023-02-23T22:17:43.191Z,29.47
2023-02-23T22:20:20.242Z,29.37
2023-02-23T22:22:51.165Z,27.80
2023-02-23T22:25:22.953Z,30.13
2023-02-23T22:27:53.069Z,24.93
2023-02-23T22:30:23.371Z,26.93
2023-02-23T22:32:56.402Z,25.53
2023-02-23T22:35:26.612Z,23.83
2023-02-23T22:37:56.717Z,27.17
2023-02-23T22:40:27.961Z,23.17
2023-02-23T22:42:59.306Z,23.53
2023-02-23T22:45:30.468Z,24.37
2023-02-23T22:48:06.246Z,23.27
2023-02-23T22:50:36.941Z,23.50
2023-02-23T22:53:07.750Z,21.93
2023-02-23T22:55:38.382Z,19.13
2023-02-23T22:58:10.843Z,21.83
2023-02-23T23:00:40.964Z,19.40
2023-02-23T23:03:16.748Z,20.20
2023-02-23T23:05:52.401Z,21.07
2023-02-23T23:08:22.478Z,22.77
2023-02-23T23:10:52.725Z,25.53
2023-02-23T23:13:25.878Z,23.30
2023-02-23T23:16:07.470Z,22.10
2023-02-23T23:18:43.483Z,21.97
2023-02-23T23:21:16.011Z,23.37
2023-02-23T23:23:48.105Z,22.30
2023-02-23T23:26:23.823Z,21.47
2023-02-23T23:28:58.327Z,20.63
2023-02-23T23:31:35.059Z,23.00
2023-02-23T23:34:12.019Z,18.57
2023-02-23T23:36:49.474Z,22.03
2023-02-23T23:39:22.514Z,23.43
2023-02-23T23:41:53.736Z,23.13
2023-02-23T23:44:29.186Z,24.33
2023-02-23T23:46:59.939Z,28.33
2023-02-23T23:49:35.631Z,23.77
2023-02-23T23:52:06.396Z,23.67
2023-02-23T23:54:44.604Z,21.83
2023-02-23T23:57:14.989Z,27.17
2023-02-23T23:59:46.530Z,28.70
